Greenville Downtown Airport
KGMU : now visible

Airfield :











YOU CAN JOIN US ON...

 
LOGIN :

Register | Disclaimer

   EN    FR    IT 

 









Legend :    VFR   Marginal VFR   IFR   Intensive IFR   Very Intensive IFR
Visi :
Ceiling :
>= 8 km
>= 3000ft
5 to 8 km
1000 to 3000 ft
1500m to 5 km
500 to 1000 ft
800 to 1500m
200 to 500 ft
< 800m
< 200 ft
Symbols :   Thunderstorms  Fog  Heavy snow  Heavy precipitations  Wind > 20 kt






- Airport Elevation : 1048 ft


KGMU - Greenville Downtown

CURRENT METAR :
  • 030853Z AUTO 00000KT 10SM CLR 24/21 A3002 RMK AO2 SLP152 T02390211 56007

EXPIRED METARs :
  • 030753Z AUTO 00000KT 10SM CLR 25/21 A3002 RMK AO2 SLP152 T02500211
  • 030653Z AUTO 00000KT 10SM CLR 26/21 A3003 RMK AO2 SLP157 T02560211

TAF KGMU
Valid from the 03 at 06:00 until the 04 at 06:00 UTC


030614Z 0306/0406 VRB02KT P6SM FEW070 SCT130
TEMPO 0306/0309 4SM BR
FM031600 16003KT P6SM VCSH SCT045
PROB30 0317/0323 4SM TSRA BR BKN050CB
FM032300 36005KT P6SM VCTS BKN050CB
FM040100 03003KT P6SM SCT050
KZTL FIR / North America



MET'MAP, your aeronautical weather chart ! - Copyright ORBIFLY December 2007 - Disclaimer

ORBIFLY MET'MAP TEAM :

Programming & Development : Alexandra Zaïnal
Original concept : Baudouin d'Aumeries
Technical & hardware support : Manuel Goepfert
Assistance : Marc-Olivier Méhu




SOURCES & CREDITS :

   NOAA       Earth
Advisory